sensor_id;sensor_type;location;lat;lon;timestamp;temperature;humidity
11009;DHT22;5557;51.670;7.788;2022-08-19T00:02:03;17.90;99.90
11009;DHT22;5557;51.670;7.788;2022-08-19T00:04:32;17.90;99.90
11009;DHT22;5557;51.670;7.788;2022-08-19T00:07:04;17.90;99.90
11009;DHT22;5557;51.670;7.788;2022-08-19T00:09:32;17.90;99.90
11009;DHT22;5557;51.670;7.788;2022-08-19T00:11:59;17.80;99.90
11009;DHT22;5557;51.670;7.788;2022-08-19T00:14:28;17.80;99.90
11009;DHT22;5557;51.670;7.788;2022-08-19T00:16:58;17.70;99.90
11009;DHT22;5557;51.670;7.788;2022-08-19T00:19:25;17.70;99.90
11009;DHT22;5557;51.670;7.788;2022-08-19T00:21:52;17.70;99.90
11009;DHT22;5557;51.670;7.788;2022-08-19T00:24:19;17.70;99.90
11009;DHT22;5557;51.670;7.788;2022-08-19T00:26:47;17.80;99.90
11009;DHT22;5557;51.670;7.788;2022-08-19T00:29:16;17.70;99.90
11009;DHT22;5557;51.670;7.788;2022-08-19T00:31:44;17.70;99.90
11009;DHT22;5557;51.670;7.788;2022-08-19T00:34:12;17.60;99.90
11009;DHT22;5557;51.670;7.788;2022-08-19T00:36:40;17.60;99.90
11009;DHT22;5557;51.670;7.788;2022-08-19T00:39:08;17.50;99.90
11009;DHT22;5557;51.670;7.788;2022-08-19T00:41:35;17.50;99.90
11009;DHT22;5557;51.670;7.788;2022-08-19T00:44:12;17.50;99.90
11009;DHT22;5557;51.670;7.788;2022-08-19T00:46:42;17.40;99.90
11009;DHT22;5557;51.670;7.788;2022-08-19T00:49:15;17.40;99.90
11009;DHT22;5557;51.670;7.788;2022-08-19T00:51:47;17.40;99.90
11009;DHT22;5557;51.670;7.788;2022-08-19T00:54:17;17.40;99.90
11009;DHT22;5557;51.670;7.788;2022-08-19T00:56:53;17.40;99.90
11009;DHT22;5557;51.670;7.788;2022-08-19T00:59:21;17.40;99.90
11009;DHT22;5557;51.670;7.788;2022-08-19T01:02:09;17.30;99.90
11009;DHT22;5557;51.670;7.788;2022-08-19T01:04:36;17.30;99.90
11009;DHT22;5557;51.670;7.788;2022-08-19T01:07:03;17.30;99.90
11009;DHT22;5557;51.670;7.788;2022-08-19T01:09:30;17.20;99.90
11009;DHT22;5557;51.670;7.788;2022-08-19T01:11:57;17.20;99.90
11009;DHT22;5557;51.670;7.788;2022-08-19T01:14:25;17.10;99.90
11009;DHT22;5557;51.670;7.788;2022-08-19T01:16:53;17.20;99.90
11009;DHT22;5557;51.670;7.788;2022-08-19T01:19:30;17.20;99.90
11009;DHT22;5557;51.670;7.788;2022-08-19T01:22:31;17.10;99.90
11009;DHT22;5557;51.670;7.788;2022-08-19T01:25:01;17.10;99.90
11009;DHT22;5557;51.670;7.788;2022-08-19T01:27:40;17.10;99.90
11009;DHT22;5557;51.670;7.788;2022-08-19T01:30:12;17.00;99.90
11009;DHT22;5557;51.670;7.788;2022-08-19T01:32:41;17.00;99.90
11009;DHT22;5557;51.670;7.788;2022-08-19T01:35:11;17.00;99.90
11009;DHT22;5557;51.670;7.788;2022-08-19T01:37:54;16.90;99.90
11009;DHT22;5557;51.670;7.788;2022-08-19T01:40:23;16.90;99.90
11009;DHT22;5557;51.670;7.788;2022-08-19T01:42:52;16.80;99.90
11009;DHT22;5557;51.670;7.788;2022-08-19T01:45:23;16.80;99.90
11009;DHT22;5557;51.670;7.788;2022-08-19T01:47:51;16.80;99.90
11009;DHT22;5557;51.670;7.788;2022-08-19T01:50:29;16.70;99.90
11009;DHT22;5557;51.670;7.788;2022-08-19T01:52:57;16.70;99.90
11009;DHT22;5557;51.670;7.788;2022-08-19T01:55:34;16.70;99.90
11009;DHT22;5557;51.670;7.788;2022-08-19T01:58:13;16.60;99.90
11009;DHT22;5557;51.670;7.788;2022-08-19T02:00:41;16.60;99.90
11009;DHT22;5557;51.670;7.788;2022-08-19T02:03:08;16.70;99.90
11009;DHT22;5557;51.670;7.788;2022-08-19T02:05:37;16.60;99.90
11009;DHT22;5557;51.670;7.788;2022-08-19T02:08:05;16.50;99.90
11009;DHT22;5557;51.670;7.788;2022-08-19T02:10:32;16.50;99.90
11009;DHT22;5557;51.670;7.788;2022-08-19T02:12:59;16.50;99.90
11009;DHT22;5557;51.670;7.788;2022-08-19T02:15:26;16.40;99.90
11009;DHT22;5557;51.670;7.788;2022-08-19T02:17:53;16.40;99.90
11009;DHT22;5557;51.670;7.788;2022-08-19T02:20:20;16.40;99.90
11009;DHT22;5557;51.670;7.788;2022-08-19T02:22:47;16.50;99.90
11009;DHT22;5557;51.670;7.788;2022-08-19T02:25:14;16.50;99.90
11009;DHT22;5557;51.670;7.788;2022-08-19T02:27:41;16.40;99.90
11009;DHT22;5557;51.670;7.788;2022-08-19T02:30:12;16.40;99.90
11009;DHT22;5557;51.670;7.788;2022-08-19T02:32:40;16.40;99.90
11009;DHT22;5557;51.670;7.788;2022-08-19T02:35:11;16.50;99.90
11009;DHT22;5557;51.670;7.788;2022-08-19T02:37:38;16.60;99.90
11009;DHT22;5557;51.670;7.788;2022-08-19T02:40:23;16.50;99.90
11009;DHT22;5557;51.670;7.788;2022-08-19T02:42:51;16.50;99.90
11009;DHT22;5557;51.670;7.788;2022-08-19T02:45:18;16.40;99.90
11009;DHT22;5557;51.670;7.788;2022-08-19T02:47:45;16.40;99.90
11009;DHT22;5557;51.670;7.788;2022-08-19T02:50:12;16.40;99.90
11009;DHT22;5557;51.670;7.788;2022-08-19T02:52:40;16.40;99.90
11009;DHT22;5557;51.670;7.788;2022-08-19T02:55:08;16.40;99.90
11009;DHT22;5557;51.670;7.788;2022-08-19T02:57:35;16.40;99.90
11009;DHT22;5557;51.670;7.788;2022-08-19T03:00:07;16.50;99.90
11009;DHT22;5557;51.670;7.788;2022-08-19T03:02:35;16.40;99.90
11009;DHT22;5557;51.670;7.788;2022-08-19T03:05:03;16.40;99.90
11009;DHT22;5557;51.670;7.788;2022-08-19T03:07:31;16.50;99.90
11009;DHT22;5557;51.670;7.788;2022-08-19T03:09:58;16.40;99.90
11009;DHT22;5557;51.670;7.788;2022-08-19T03:12:25;16.40;99.90
11009;DHT22;5557;51.670;7.788;2022-08-19T03:14:52;16.40;99.90
11009;DHT22;5557;51.670;7.788;2022-08-19T03:17:19;16.40;99.90
11009;DHT22;5557;51.670;7.788;2022-08-19T03:19:46;16.40;99.90
11009;DHT22;5557;51.670;7.788;2022-08-19T03:22:13;16.40;99.90
11009;DHT22;5557;51.670;7.788;2022-08-19T03:24:40;16.30;99.90
11009;DHT22;5557;51.670;7.788;2022-08-19T03:27:07;16.30;99.90
11009;DHT22;5557;51.670;7.788;2022-08-19T03:29:36;16.30;99.90
11009;DHT22;5557;51.670;7.788;2022-08-19T03:32:10;16.30;99.90
11009;DHT22;5557;51.670;7.788;2022-08-19T03:34:57;16.20;99.90
11009;DHT22;5557;51.670;7.788;2022-08-19T03:37:25;16.20;99.90
11009;DHT22;5557;51.670;7.788;2022-08-19T03:39:52;16.20;99.90
11009;DHT22;5557;51.670;7.788;2022-08-19T03:42:19;16.10;99.90
11009;DHT22;5557;51.670;7.788;2022-08-19T03:45:06;16.10;99.90
11009;DHT22;5557;51.670;7.788;2022-08-19T03:47:34;16.10;99.90
11009;DHT22;5557;51.670;7.788;2022-08-19T03:50:01;16.00;99.90
11009;DHT22;5557;51.670;7.788;2022-08-19T03:52:28;16.00;99.90
11009;DHT22;5557;51.670;7.788;2022-08-19T03:54:55;16.00;99.90
11009;DHT22;5557;51.670;7.788;2022-08-19T03:57:22;15.90;99.90
11009;DHT22;5557;51.670;7.788;2022-08-19T03:59:57;15.90;99.90
11009;DHT22;5557;51.670;7.788;2022-08-19T04:02:40;15.80;99.90
11009;DHT22;5557;51.670;7.788;2022-08-19T04:05:07;15.80;99.90
11009;DHT22;5557;51.670;7.788;2022-08-19T04:07:34;15.80;99.90
11009;DHT22;5557;51.670;7.788;2022-08-19T04:10:03;15.80;99.90
11009;DHT22;5557;51.670;7.788;2022-08-19T04:12:30;15.80;99.90
11009;DHT22;5557;51.670;7.788;2022-08-19T04:15:00;15.90;99.90
11009;DHT22;5557;51.670;7.788;2022-08-19T04:17:27;15.90;99.90
11009;DHT22;5557;51.670;7.788;2022-08-19T04:19:54;15.90;99.90
11009;DHT22;5557;51.670;7.788;2022-08-19T04:22:21;15.90;99.90
11009;DHT22;5557;51.670;7.788;2022-08-19T04:24:47;15.90;99.90
11009;DHT22;5557;51.670;7.788;2022-08-19T04:27:14;15.80;99.90
11009;DHT22;5557;51.670;7.788;2022-08-19T04:29:43;15.80;99.90
11009;DHT22;5557;51.670;7.788;2022-08-19T04:32:10;15.80;99.90
11009;DHT22;5557;51.670;7.788;2022-08-19T04:34:37;15.80;99.90
11009;DHT22;5557;51.670;7.788;2022-08-19T04:37:25;15.70;99.90
11009;DHT22;5557;51.670;7.788;2022-08-19T04:40:00;15.80;99.90
11009;DHT22;5557;51.670;7.788;2022-08-19T04:42:46;15.80;99.90
11009;DHT22;5557;51.670;7.788;2022-08-19T04:45:14;15.90;99.90
11009;DHT22;5557;51.670;7.788;2022-08-19T04:47:43;16.00;99.90
11009;DHT22;5557;51.670;7.788;2022-08-19T04:50:25;16.10;99.90
11009;DHT22;5557;51.670;7.788;2022-08-19T04:52:52;16.10;99.90
11009;DHT22;5557;51.670;7.788;2022-08-19T04:55:20;16.20;99.90
11009;DHT22;5557;51.670;7.788;2022-08-19T04:57:47;16.20;99.90
11009;DHT22;5557;51.670;7.788;2022-08-19T05:00:14;16.20;99.90
11009;DHT22;5557;51.670;7.788;2022-08-19T05:02:41;16.20;99.90
11009;DHT22;5557;51.670;7.788;2022-08-19T05:05:08;16.20;99.90
11009;DHT22;5557;51.670;7.788;2022-08-19T05:07:36;16.20;99.90
11009;DHT22;5557;51.670;7.788;2022-08-19T05:10:04;16.30;99.90
11009;DHT22;5557;51.670;7.788;2022-08-19T05:12:32;16.40;99.90
11009;DHT22;5557;51.670;7.788;2022-08-19T05:14:59;16.40;99.90
11009;DHT22;5557;51.670;7.788;2022-08-19T05:17:27;16.50;99.90
11009;DHT22;5557;51.670;7.788;2022-08-19T05:20:00;16.50;99.90
11009;DHT22;5557;51.670;7.788;2022-08-19T05:22:47;16.50;99.90
11009;DHT22;5557;51.670;7.788;2022-08-19T05:25:18;16.50;99.90
11009;DHT22;5557;51.670;7.788;2022-08-19T05:27:47;16.50;99.90
11009;DHT22;5557;51.670;7.788;2022-08-19T05:30:14;16.60;99.90
11009;DHT22;5557;51.670;7.788;2022-08-19T05:32:42;16.80;99.90
11009;DHT22;5557;51.670;7.788;2022-08-19T05:35:11;16.90;99.90
11009;DHT22;5557;51.670;7.788;2022-08-19T05:37:40;17.00;99.90
11009;DHT22;5557;51.670;7.788;2022-08-19T05:40:08;17.20;99.90
11009;DHT22;5557;51.670;7.788;2022-08-19T05:42:35;17.50;99.90
11009;DHT22;5557;51.670;7.788;2022-08-19T05:45:03;17.80;99.90
11009;DHT22;5557;51.670;7.788;2022-08-19T05:47:30;18.00;99.90
11009;DHT22;5557;51.670;7.788;2022-08-19T05:49:59;18.20;99.90
11009;DHT22;5557;51.670;7.788;2022-08-19T05:52:30;18.50;99.90
11009;DHT22;5557;51.670;7.788;2022-08-19T05:54:57;19.20;99.90
11009;DHT22;5557;51.670;7.788;2022-08-19T05:57:24;19.80;93.40
11009;DHT22;5557;51.670;7.788;2022-08-19T05:59:52;20.20;80.20
11009;DHT22;5557;51.670;7.788;2022-08-19T06:02:25;20.10;79.40
11009;DHT22;5557;51.670;7.788;2022-08-19T06:04:53;20.10;76.30
11009;DHT22;5557;51.670;7.788;2022-08-19T06:07:20;20.20;75.30
11009;DHT22;5557;51.670;7.788;2022-08-19T06:09:47;20.20;72.50
11009;DHT22;5557;51.670;7.788;2022-08-19T06:12:31;20.20;75.50
11009;DHT22;5557;51.670;7.788;2022-08-19T06:15:07;20.50;75.60
11009;DHT22;5557;51.670;7.788;2022-08-19T06:17:34;20.80;66.00
11009;DHT22;5557;51.670;7.788;2022-08-19T06:20:07;21.20;60.70
11009;DHT22;5557;51.670;7.788;2022-08-19T06:22:48;21.30;59.90
11009;DHT22;5557;51.670;7.788;2022-08-19T06:25:19;21.40;55.60
11009;DHT22;5557;51.670;7.788;2022-08-19T06:27:46;21.40;53.60
11009;DHT22;5557;51.670;7.788;2022-08-19T06:30:33;21.40;53.70
11009;DHT22;5557;51.670;7.788;2022-08-19T06:33:00;21.80;51.70
11009;DHT22;5557;51.670;7.788;2022-08-19T06:35:27;22.40;44.60
11009;DHT22;5557;51.670;7.788;2022-08-19T06:37:56;22.90;36.90
11009;DHT22;5557;51.670;7.788;2022-08-19T06:40:23;23.10;31.90
11009;DHT22;5557;51.670;7.788;2022-08-19T06:42:50;23.30;31.20
11009;DHT22;5557;51.670;7.788;2022-08-19T06:45:22;23.50;27.40
11009;DHT22;5557;51.670;7.788;2022-08-19T06:47:51;24.00;26.70
11009;DHT22;5557;51.670;7.788;2022-08-19T06:50:25;24.40;19.20
11009;DHT22;5557;51.670;7.788;2022-08-19T06:52:52;24.80;16.60
11009;DHT22;5557;51.670;7.788;2022-08-19T06:55:21;24.80;16.60
11009;DHT22;5557;51.670;7.788;2022-08-19T06:57:47;24.90;17.60
11009;DHT22;5557;51.670;7.788;2022-08-19T07:00:17;24.20;20.00
11009;DHT22;5557;51.670;7.788;2022-08-19T07:02:44;23.60;25.60
11009;DHT22;5557;51.670;7.788;2022-08-19T07:05:21;23.10;30.80
11009;DHT22;5557;51.670;7.788;2022-08-19T07:07:48;22.90;36.80
11009;DHT22;5557;51.670;7.788;2022-08-19T07:10:16;22.90;36.00
11009;DHT22;5557;51.670;7.788;2022-08-19T07:12:43;23.00;37.30
11009;DHT22;5557;51.670;7.788;2022-08-19T07:15:11;23.20;35.80
11009;DHT22;5557;51.670;7.788;2022-08-19T07:17:38;23.70;27.50
11009;DHT22;5557;51.670;7.788;2022-08-19T07:20:08;23.80;27.10
11009;DHT22;5557;51.670;7.788;2022-08-19T07:22:39;24.20;27.80
11009;DHT22;5557;51.670;7.788;2022-08-19T07:25:08;24.50;21.90
11009;DHT22;5557;51.670;7.788;2022-08-19T07:27:35;24.50;20.10
11009;DHT22;5557;51.670;7.788;2022-08-19T07:30:07;24.30;22.60
11009;DHT22;5557;51.670;7.788;2022-08-19T07:32:38;24.40;21.90
11009;DHT22;5557;51.670;7.788;2022-08-19T07:35:06;24.40;22.20
11009;DHT22;5557;51.670;7.788;2022-08-19T07:37:33;24.40;23.60
11009;DHT22;5557;51.670;7.788;2022-08-19T07:40:07;24.20;23.10
11009;DHT22;5557;51.670;7.788;2022-08-19T07:42:34;24.20;22.90
11009;DHT22;5557;51.670;7.788;2022-08-19T07:45:02;24.10;26.10
11009;DHT22;5557;51.670;7.788;2022-08-19T07:47:28;24.30;22.60
11009;DHT22;5557;51.670;7.788;2022-08-19T07:50:18;24.60;20.40
11009;DHT22;5557;51.670;7.788;2022-08-19T07:52:47;25.20;19.70
11009;DHT22;5557;51.670;7.788;2022-08-19T07:55:18;25.80;14.30
11009;DHT22;5557;51.670;7.788;2022-08-19T07:58:06;25.90;11.70
11009;DHT22;5557;51.670;7.788;2022-08-19T08:00:33;26.20;11.20
11009;DHT22;5557;51.670;7.788;2022-08-19T08:03:01;26.40;8.30
11009;DHT22;5557;51.670;7.788;2022-08-19T08:05:29;26.80;5.70
11009;DHT22;5557;51.670;7.788;2022-08-19T08:08:14;27.20;3.60
11009;DHT22;5557;51.670;7.788;2022-08-19T08:11:03;27.70;1.00
11009;DHT22;5557;51.670;7.788;2022-08-19T08:13:34;28.30;1.00
11009;DHT22;5557;51.670;7.788;2022-08-19T08:16:04;28.70;1.00
11009;DHT22;5557;51.670;7.788;2022-08-19T08:18:35;29.10;1.00
11009;DHT22;5557;51.670;7.788;2022-08-19T08:21:08;29.70;1.00
11009;DHT22;5557;51.670;7.788;2022-08-19T08:23:35;30.10;1.00
11009;DHT22;5557;51.670;7.788;2022-08-19T08:26:05;29.70;1.00
11009;DHT22;5557;51.670;7.788;2022-08-19T08:28:32;29.80;1.00
11009;DHT22;5557;51.670;7.788;2022-08-19T08:30:59;29.90;1.00
11009;DHT22;5557;51.670;7.788;2022-08-19T08:33:28;30.10;1.00
11009;DHT22;5557;51.670;7.788;2022-08-19T08:36:03;30.20;1.00
11009;DHT22;5557;51.670;7.788;2022-08-19T08:38:32;30.20;1.00
11009;DHT22;5557;51.670;7.788;2022-08-19T08:41:51;30.30;1.00
11009;DHT22;5557;51.670;7.788;2022-08-19T08:47:35;30.20;1.00
11009;DHT22;5557;51.670;7.788;2022-08-19T08:50:17;29.70;1.00
11009;DHT22;5557;51.670;7.788;2022-08-19T08:52:48;30.20;1.00
11009;DHT22;5557;51.670;7.788;2022-08-19T08:55:19;30.30;1.00
11009;DHT22;5557;51.670;7.788;2022-08-19T08:58:06;30.20;1.00
11009;DHT22;5557;51.670;7.788;2022-08-19T09:00:44;30.20;1.00
11009;DHT22;5557;51.670;7.788;2022-08-19T09:03:23;29.70;1.00
11009;DHT22;5557;51.670;7.788;2022-08-19T09:06:04;29.50;1.00
11009;DHT22;5557;51.670;7.788;2022-08-19T09:09:05;29.50;1.00
11009;DHT22;5557;51.670;7.788;2022-08-19T09:11:47;29.50;1.00
11009;DHT22;5557;51.670;7.788;2022-08-19T09:14:34;30.20;1.00
11009;DHT22;5557;51.670;7.788;2022-08-19T09:17:17;29.50;1.00
11009;DHT22;5557;51.670;7.788;2022-08-19T09:20:22;29.30;1.00
11009;DHT22;5557;51.670;7.788;2022-08-19T09:22:51;29.40;1.00
11009;DHT22;5557;51.670;7.788;2022-08-19T09:25:20;30.00;1.00
11009;DHT22;5557;51.670;7.788;2022-08-19T09:27:53;30.00;1.00
11009;DHT22;5557;51.670;7.788;2022-08-19T09:30:31;30.20;1.00
11009;DHT22;5557;51.670;7.788;2022-08-19T09:32:59;30.00;1.00
11009;DHT22;5557;51.670;7.788;2022-08-19T09:35:29;29.70;1.00
11009;DHT22;5557;51.670;7.788;2022-08-19T09:37:57;29.70;1.00
11009;DHT22;5557;51.670;7.788;2022-08-19T09:40:29;30.10;1.00
11009;DHT22;5557;51.670;7.788;2022-08-19T09:43:03;30.70;1.00
11009;DHT22;5557;51.670;7.788;2022-08-19T09:45:38;30.90;1.00
11009;DHT22;5557;51.670;7.788;2022-08-19T09:48:05;30.80;1.00
11009;DHT22;5557;51.670;7.788;2022-08-19T09:50:32;30.50;1.00
11009;DHT22;5557;51.670;7.788;2022-08-19T09:53:01;30.50;1.00
11009;DHT22;5557;51.670;7.788;2022-08-19T09:55:28;30.50;1.00
11009;DHT22;5557;51.670;7.788;2022-08-19T09:58:00;30.60;1.00
11009;DHT22;5557;51.670;7.788;2022-08-19T10:00:27;31.20;1.00
11009;DHT22;5557;51.670;7.788;2022-08-19T10:02:54;31.50;1.00
11009;DHT22;5557;51.670;7.788;2022-08-19T10:05:22;31.40;1.00
11009;DHT22;5557;51.670;7.788;2022-08-19T10:08:09;31.60;1.00
11009;DHT22;5557;51.670;7.788;2022-08-19T10:10:41;31.90;1.00
11009;DHT22;5557;51.670;7.788;2022-08-19T10:13:13;31.50;1.00
11009;DHT22;5557;51.670;7.788;2022-08-19T10:15:40;31.00;1.00
11009;DHT22;5557;51.670;7.788;2022-08-19T10:18:14;30.50;1.00
11009;DHT22;5557;51.670;7.788;2022-08-19T10:20:41;30.50;1.00
11009;DHT22;5557;51.670;7.788;2022-08-19T10:23:09;30.00;1.00
11009;DHT22;5557;51.670;7.788;2022-08-19T10:25:36;29.80;1.00
11009;DHT22;5557;51.670;7.788;2022-08-19T10:28:04;29.60;1.00
11009;DHT22;5557;51.670;7.788;2022-08-19T10:30:36;29.30;1.00
11009;DHT22;5557;51.670;7.788;2022-08-19T10:33:04;28.90;1.00
11009;DHT22;5557;51.670;7.788;2022-08-19T10:35:37;28.90;1.00
11009;DHT22;5557;51.670;7.788;2022-08-19T10:38:23;29.80;1.00
11009;DHT22;5557;51.670;7.788;2022-08-19T10:41:17;30.60;1.00
11009;DHT22;5557;51.670;7.788;2022-08-19T10:43:45;30.90;1.00
11009;DHT22;5557;51.670;7.788;2022-08-19T10:46:14;30.90;1.00
11009;DHT22;5557;51.670;7.788;2022-08-19T10:48:43;30.40;1.00
11009;DHT22;5557;51.670;7.788;2022-08-19T10:51:11;29.90;1.00
11009;DHT22;5557;51.670;7.788;2022-08-19T10:53:57;29.50;1.00
11009;DHT22;5557;51.670;7.788;2022-08-19T10:56:25;29.20;1.00
11009;DHT22;5557;51.670;7.788;2022-08-19T10:59:11;29.40;1.00
11009;DHT22;5557;51.670;7.788;2022-08-19T11:01:43;30.30;1.00
11009;DHT22;5557;51.670;7.788;2022-08-19T11:04:11;30.90;1.00
11009;DHT22;5557;51.670;7.788;2022-08-19T11:06:41;30.90;1.00
11009;DHT22;5557;51.670;7.788;2022-08-19T11:09:10;31.30;1.00
11009;DHT22;5557;51.670;7.788;2022-08-19T11:11:38;31.60;1.00
11009;DHT22;5557;51.670;7.788;2022-08-19T11:14:12;30.90;1.00
11009;DHT22;5557;51.670;7.788;2022-08-19T11:16:41;30.00;1.00
11009;DHT22;5557;51.670;7.788;2022-08-19T11:19:10;29.10;1.00
11009;DHT22;5557;51.670;7.788;2022-08-19T11:21:43;28.70;1.00
11009;DHT22;5557;51.670;7.788;2022-08-19T11:24:16;28.40;1.00
11009;DHT22;5557;51.670;7.788;2022-08-19T11:26:44;28.20;1.00
11009;DHT22;5557;51.670;7.788;2022-08-19T11:29:12;28.20;1.00
11009;DHT22;5557;51.670;7.788;2022-08-19T11:31:45;28.30;1.00
11009;DHT22;5557;51.670;7.788;2022-08-19T11:34:15;28.40;1.00
11009;DHT22;5557;51.670;7.788;2022-08-19T11:36:45;28.90;1.00
11009;DHT22;5557;51.670;7.788;2022-08-19T11:39:14;29.50;1.00
11009;DHT22;5557;51.670;7.788;2022-08-19T11:41:41;29.90;1.00
11009;DHT22;5557;51.670;7.788;2022-08-19T11:44:09;29.50;1.00
11009;DHT22;5557;51.670;7.788;2022-08-19T11:46:37;29.30;1.00
11009;DHT22;5557;51.670;7.788;2022-08-19T11:49:05;29.40;1.00
11009;DHT22;5557;51.670;7.788;2022-08-19T11:51:40;30.20;1.00
11009;DHT22;5557;51.670;7.788;2022-08-19T11:54:09;31.10;1.00
11009;DHT22;5557;51.670;7.788;2022-08-19T11:56:37;31.60;1.00
11009;DHT22;5557;51.670;7.788;2022-08-19T11:59:04;31.20;1.00
11009;DHT22;5557;51.670;7.788;2022-08-19T12:01:31;31.20;1.00
11009;DHT22;5557;51.670;7.788;2022-08-19T12:03:59;31.50;1.00
11009;DHT22;5557;51.670;7.788;2022-08-19T12:06:32;31.90;1.00
11009;DHT22;5557;51.670;7.788;2022-08-19T12:09:04;32.40;1.00
11009;DHT22;5557;51.670;7.788;2022-08-19T12:11:32;32.80;1.00
11009;DHT22;5557;51.670;7.788;2022-08-19T12:14:00;32.60;1.00
11009;DHT22;5557;51.670;7.788;2022-08-19T12:16:29;32.70;1.00
11009;DHT22;5557;51.670;7.788;2022-08-19T12:19:00;32.00;1.00
11009;DHT22;5557;51.670;7.788;2022-08-19T12:21:33;31.00;1.00
11009;DHT22;5557;51.670;7.788;2022-08-19T12:24:01;30.40;1.00
11009;DHT22;5557;51.670;7.788;2022-08-19T12:26:29;30.00;1.00
11009;DHT22;5557;51.670;7.788;2022-08-19T12:28:59;29.90;1.00
11009;DHT22;5557;51.670;7.788;2022-08-19T12:31:28;29.70;1.00
11009;DHT22;5557;51.670;7.788;2022-08-19T12:33:55;29.40;1.00
11009;DHT22;5557;51.670;7.788;2022-08-19T12:36:23;30.30;1.00
11009;DHT22;5557;51.670;7.788;2022-08-19T12:38:51;31.10;1.00
11009;DHT22;5557;51.670;7.788;2022-08-19T12:41:19;31.90;1.00
11009;DHT22;5557;51.670;7.788;2022-08-19T12:43:49;32.10;1.00
11009;DHT22;5557;51.670;7.788;2022-08-19T12:46:18;32.20;1.00
11009;DHT22;5557;51.670;7.788;2022-08-19T12:48:47;32.30;1.00
11009;DHT22;5557;51.670;7.788;2022-08-19T12:51:21;32.30;1.00
11009;DHT22;5557;51.670;7.788;2022-08-19T12:53:48;32.10;1.00
11009;DHT22;5557;51.670;7.788;2022-08-19T12:56:16;32.00;1.00
11009;DHT22;5557;51.670;7.788;2022-08-19T12:58:49;32.20;1.00
11009;DHT22;5557;51.670;7.788;2022-08-19T13:01:19;32.80;1.00
11009;DHT22;5557;51.670;7.788;2022-08-19T13:03:49;33.10;1.00
11009;DHT22;5557;51.670;7.788;2022-08-19T13:06:18;33.10;1.00
11009;DHT22;5557;51.670;7.788;2022-08-19T13:08:46;33.00;1.00
11009;DHT22;5557;51.670;7.788;2022-08-19T13:11:16;32.80;1.00
11009;DHT22;5557;51.670;7.788;2022-08-19T13:13:47;33.10;1.00
11009;DHT22;5557;51.670;7.788;2022-08-19T13:16:14;33.30;1.00
11009;DHT22;5557;51.670;7.788;2022-08-19T13:18:44;33.30;1.00
11009;DHT22;5557;51.670;7.788;2022-08-19T13:21:11;33.10;1.00
11009;DHT22;5557;51.670;7.788;2022-08-19T13:23:40;31.70;1.00
11009;DHT22;5557;51.670;7.788;2022-08-19T13:26:08;31.00;1.00
11009;DHT22;5557;51.670;7.788;2022-08-19T13:28:36;31.10;1.00
11009;DHT22;5557;51.670;7.788;2022-08-19T13:31:23;30.90;1.00
11009;DHT22;5557;51.670;7.788;2022-08-19T13:34:09;30.70;1.00
11009;DHT22;5557;51.670;7.788;2022-08-19T13:36:37;30.60;1.00
11009;DHT22;5557;51.670;7.788;2022-08-19T13:39:06;31.00;1.00
11009;DHT22;5557;51.670;7.788;2022-08-19T13:41:41;30.90;1.00
11009;DHT22;5557;51.670;7.788;2022-08-19T13:44:09;30.50;1.00
11009;DHT22;5557;51.670;7.788;2022-08-19T13:46:36;30.80;1.00
11009;DHT22;5557;51.670;7.788;2022-08-19T13:49:03;31.20;1.00
11009;DHT22;5557;51.670;7.788;2022-08-19T13:51:31;31.30;1.00
11009;DHT22;5557;51.670;7.788;2022-08-19T13:53:58;31.00;1.00
11009;DHT22;5557;51.670;7.788;2022-08-19T13:56:25;30.10;1.00
11009;DHT22;5557;51.670;7.788;2022-08-19T13:58:53;30.00;1.00
11009;DHT22;5557;51.670;7.788;2022-08-19T14:01:24;30.00;1.00
11009;DHT22;5557;51.670;7.788;2022-08-19T14:03:53;29.70;1.00
11009;DHT22;5557;51.670;7.788;2022-08-19T14:06:20;29.50;1.00
11009;DHT22;5557;51.670;7.788;2022-08-19T14:08:48;29.60;1.00
11009;DHT22;5557;51.670;7.788;2022-08-19T14:11:15;30.10;1.00
11009;DHT22;5557;51.670;7.788;2022-08-19T14:13:43;30.70;1.00
11009;DHT22;5557;51.670;7.788;2022-08-19T14:16:12;31.10;1.00
11009;DHT22;5557;51.670;7.788;2022-08-19T14:18:40;30.40;1.00
11009;DHT22;5557;51.670;7.788;2022-08-19T14:21:08;30.10;1.00
11009;DHT22;5557;51.670;7.788;2022-08-19T14:23:40;29.60;1.00
11009;DHT22;5557;51.670;7.788;2022-08-19T14:26:10;29.10;1.00
11009;DHT22;5557;51.670;7.788;2022-08-19T14:28:40;28.90;1.00
11009;DHT22;5557;51.670;7.788;2022-08-19T14:31:09;28.60;1.00
11009;DHT22;5557;51.670;7.788;2022-08-19T14:33:37;28.60;1.00
11009;DHT22;5557;51.670;7.788;2022-08-19T14:36:05;28.70;1.00
11009;DHT22;5557;51.670;7.788;2022-08-19T14:38:32;28.90;1.00
11009;DHT22;5557;51.670;7.788;2022-08-19T14:41:19;28.90;1.00
11009;DHT22;5557;51.670;7.788;2022-08-19T14:43:49;28.80;1.00
11009;DHT22;5557;51.670;7.788;2022-08-19T14:46:19;29.00;1.00
11009;DHT22;5557;51.670;7.788;2022-08-19T14:48:47;29.10;1.00
11009;DHT22;5557;51.670;7.788;2022-08-19T14:51:19;29.20;1.00
11009;DHT22;5557;51.670;7.788;2022-08-19T14:53:47;29.10;1.00
11009;DHT22;5557;51.670;7.788;2022-08-19T14:56:19;28.80;1.00
11009;DHT22;5557;51.670;7.788;2022-08-19T14:58:47;28.30;1.00
11009;DHT22;5557;51.670;7.788;2022-08-19T15:01:21;27.90;1.00
11009;DHT22;5557;51.670;7.788;2022-08-19T15:03:49;27.70;1.00
11009;DHT22;5557;51.670;7.788;2022-08-19T15:06:16;27.60;1.00
11009;DHT22;5557;51.670;7.788;2022-08-19T15:08:43;27.60;1.00
11009;DHT22;5557;51.670;7.788;2022-08-19T15:11:18;27.60;1.00
11009;DHT22;5557;51.670;7.788;2022-08-19T15:13:47;27.70;1.00
11009;DHT22;5557;51.670;7.788;2022-08-19T15:16:15;27.80;1.00
11009;DHT22;5557;51.670;7.788;2022-08-19T15:18:45;27.80;1.00
11009;DHT22;5557;51.670;7.788;2022-08-19T15:21:13;27.80;1.00
11009;DHT22;5557;51.670;7.788;2022-08-19T15:23:54;27.80;1.00
11009;DHT22;5557;51.670;7.788;2022-08-19T15:26:22;27.90;1.00
11009;DHT22;5557;51.670;7.788;2022-08-19T15:28:49;27.70;1.00
11009;DHT22;5557;51.670;7.788;2022-08-19T15:31:20;27.70;1.00
11009;DHT22;5557;51.670;7.788;2022-08-19T15:33:55;27.70;1.00
11009;DHT22;5557;51.670;7.788;2022-08-19T15:36:26;27.90;1.00
11009;DHT22;5557;51.670;7.788;2022-08-19T15:38:55;27.90;1.00
11009;DHT22;5557;51.670;7.788;2022-08-19T15:41:26;27.80;1.00
11009;DHT22;5557;51.670;7.788;2022-08-19T15:46:24;27.90;1.00
11009;DHT22;5557;51.670;7.788;2022-08-19T15:48:54;27.90;1.00
11009;DHT22;5557;51.670;7.788;2022-08-19T15:51:27;27.90;1.00
11009;DHT22;5557;51.670;7.788;2022-08-19T15:53:57;27.90;1.00
11009;DHT22;5557;51.670;7.788;2022-08-19T15:56:25;27.90;1.00
11009;DHT22;5557;51.670;7.788;2022-08-19T15:58:53;27.90;1.00
11009;DHT22;5557;51.670;7.788;2022-08-19T16:01:38;27.90;1.00
11009;DHT22;5557;51.670;7.788;2022-08-19T16:04:24;28.00;1.00
11009;DHT22;5557;51.670;7.788;2022-08-19T16:07:10;27.90;1.00
11009;DHT22;5557;51.670;7.788;2022-08-19T16:09:38;28.00;1.00
11009;DHT22;5557;51.670;7.788;2022-08-19T16:12:05;27.90;1.00
11009;DHT22;5557;51.670;7.788;2022-08-19T16:14:34;27.90;1.00
11009;DHT22;5557;51.670;7.788;2022-08-19T16:17:03;27.80;1.00
11009;DHT22;5557;51.670;7.788;2022-08-19T16:19:31;27.70;1.00
11009;DHT22;5557;51.670;7.788;2022-08-19T16:21:59;27.60;1.00
11009;DHT22;5557;51.670;7.788;2022-08-19T16:24:27;27.50;1.00